Time;durP1;ratioP1;P1;durP2;ratioP2;P2;SDS_P1;SDS_P2;PMS_P1;PMS_P2;Temp;Humidity;BMP_temperature;BMP_pressure;BME280_temperature;BME280_humidity;BME280_pressure;Samples;Min_cycle;Max_cycle;Signal;HPM_P1;HPM_P2
2021/01/20 00:02:09;;;;;;;5.73;5.13;;;8.50;99.10;;;;;;5051429;28;20174;-73
2021/01/20 00:04:35;;;;;;;5.50;4.50;;;8.50;98.90;;;;;;5050259;28;20247;-74
2021/01/20 00:07:00;;;;;;;5.23;4.73;;;8.60;98.60;;;;;;5052214;28;20217;-74
2021/01/20 00:09:26;;;;;;;6.37;4.87;;;8.60;98.50;;;;;;5051285;28;20174;-74
2021/01/20 00:11:52;;;;;;;8.43;5.73;;;8.60;98.60;;;;;;5052034;28;20170;-74
2021/01/20 00:14:18;;;;;;;6.23;4.77;;;8.50;98.10;;;;;;5032722;28;20198;-74
2021/01/20 00:16:44;;;;;;;5.27;4.60;;;8.50;98.40;;;;;;5052054;28;20553;-74
2021/01/20 00:19:11;;;;;;;5.30;4.80;;;8.50;98.10;;;;;;5051170;28;20708;-74
2021/01/20 00:21:38;;;;;;;5.33;4.93;;;8.50;98.10;;;;;;5051761;28;20421;-73
2021/01/20 00:24:05;;;;;;;4.77;4.30;;;8.50;98.00;;;;;;5051678;28;20440;-73
2021/01/20 00:26:31;;;;;;;5.00;4.60;;;8.50;97.90;;;;;;5050231;28;20398;-74
2021/01/20 00:28:57;;;;;;;4.90;4.40;;;8.50;97.70;;;;;;5051842;28;20389;-74
2021/01/20 00:31:22;;;;;;;5.00;4.57;;;8.60;97.90;;;;;;5051167;28;20173;-74
2021/01/20 00:33:48;;;;;;;4.93;4.43;;;8.70;97.50;;;;;;5051808;28;20173;-73
2021/01/20 00:36:14;;;;;;;5.00;4.47;;;8.60;97.40;;;;;;5050930;28;20177;-75
2021/01/20 00:38:40;;;;;;;5.47;5.00;;;8.60;97.40;;;;;;5051844;28;20201;-75
2021/01/20 00:41:06;;;;;;;5.00;4.50;;;8.60;97.40;;;;;;5050196;28;20388;-75
2021/01/20 00:43:32;;;;;;;5.73;4.17;;;8.60;97.00;;;;;;5049434;28;20404;-73
2021/01/20 00:45:58;;;;;;;5.00;4.60;;;8.50;96.90;;;;;;5051535;28;20799;-73
2021/01/20 00:48:24;;;;;;;4.80;4.40;;;8.40;96.90;;;;;;5050817;28;20227;-73
2021/01/20 00:50:57;;;;;;;4.50;4.10;;;8.40;96.80;;;;;;5051443;28;20523;-73
2021/01/20 00:53:23;;;;;;;4.80;4.30;;;8.30;96.30;;;;;;5051785;28;20424;-73
2021/01/20 00:55:49;;;;;;;4.67;4.27;;;8.20;96.50;;;;;;5052496;28;20503;-73
2021/01/20 00:58:16;;;;;;;4.30;3.80;;;8.20;96.50;;;;;;5051309;28;20407;-73
2021/01/20 01:00:42;;;;;;;4.40;3.87;;;8.20;96.60;;;;;;5052176;28;20476;-73
2021/01/20 01:03:07;;;;;;;4.10;3.80;;;8.20;96.60;;;;;;5050953;28;20772;-74
2021/01/20 01:05:34;;;;;;;3.97;3.67;;;8.20;96.60;;;;;;5054079;28;20194;-74
2021/01/20 01:08:00;;;;;;;6.70;4.10;;;8.20;96.30;;;;;;5051573;28;20628;-74
2021/01/20 01:10:26;;;;;;;4.20;3.90;;;8.10;96.40;;;;;;5050699;28;20475;-73
2021/01/20 01:12:52;;;;;;;4.80;4.40;;;8.10;96.40;;;;;;5058188;28;20418;-73
2021/01/20 01:15:18;;;;;;;4.93;4.50;;;8.10;96.20;;;;;;5059920;28;20429;-73
2021/01/20 01:17:43;;;;;;;4.20;3.90;;;8.10;96.00;;;;;;5054769;28;20503;-73
2021/01/20 01:20:10;;;;;;;5.03;4.23;;;8.10;96.10;;;;;;5054552;28;20179;-73
2021/01/20 01:22:36;;;;;;;4.83;4.50;;;8.10;96.10;;;;;;5054958;28;20182;-74
2021/01/20 01:25:02;;;;;;;5.87;4.20;;;8.20;96.00;;;;;;5053969;28;20444;-73
2021/01/20 01:27:28;;;;;;;4.10;3.80;;;8.20;95.80;;;;;;5049963;28;20636;-73
2021/01/20 01:29:54;;;;;;;4.23;3.93;;;8.20;95.80;;;;;;5053090;28;20426;-73
2021/01/20 01:32:19;;;;;;;4.33;4.03;;;8.10;95.80;;;;;;5054120;28;20180;-73
2021/01/20 01:34:45;;;;;;;5.10;4.10;;;8.10;95.80;;;;;;5054942;28;20181;-73
2021/01/20 01:37:11;;;;;;;4.50;3.63;;;8.20;95.80;;;;;;5053969;28;20207;-73
2021/01/20 01:39:37;;;;;;;5.53;5.03;;;8.20;95.90;;;;;;5054456;28;20389;-73
2021/01/20 01:42:04;;;;;;;4.60;4.20;;;8.20;96.30;;;;;;5054333;28;20188;-73
2021/01/20 01:44:30;;;;;;;5.70;4.93;;;8.20;95.80;;;;;;5053855;28;20206;-74
2021/01/20 01:46:56;;;;;;;5.17;4.73;;;8.00;95.80;;;;;;5054357;28;20507;-73
2021/01/20 01:49:23;;;;;;;8.20;4.90;;;8.00;96.20;;;;;;5042980;28;20425;-73
2021/01/20 01:51:50;;;;;;;5.20;4.37;;;7.90;96.40;;;;;;5056335;28;20196;-74
2021/01/20 01:54:16;;;;;;;4.17;3.77;;;8.00;96.50;;;;;;5070793;28;20433;-73
2021/01/20 01:56:43;;;;;;;5.80;4.93;;;8.10;96.70;;;;;;5074025;28;20450;-74
2021/01/20 01:59:09;;;;;;;5.07;4.50;;;8.10;96.40;;;;;;5060030;28;20389;-74
2021/01/20 02:01:34;;;;;;;5.20;4.70;;;8.10;96.20;;;;;;5053276;28;20415;-74
2021/01/20 02:04:00;;;;;;;4.73;4.33;;;8.20;96.10;;;;;;5054225;28;20426;-74
2021/01/20 02:06:26;;;;;;;5.23;4.57;;;8.20;95.90;;;;;;5053416;28;20222;-74
2021/01/20 02:08:53;;;;;;;5.00;4.53;;;8.10;95.80;;;;;;5053405;28;20189;-73
2021/01/20 02:11:34;;;;;;;4.57;4.23;;;8.10;96.10;;;;;;5053433;28;20171;-74
2021/01/20 02:14:24;;;;;;;4.40;4.10;;;8.10;96.20;;;;;;5052884;28;20401;-74
2021/01/20 02:17:04;;;;;;;5.23;4.83;;;8.20;95.90;;;;;;5054169;28;20399;-74
2021/01/20 02:19:45;;;;;;;4.70;4.30;;;8.20;95.80;;;;;;5053489;28;20426;-74
2021/01/20 02:22:23;;;;;;;5.00;4.60;;;8.20;95.60;;;;;;5053344;28;20387;-74
2021/01/20 02:25:13;;;;;;;5.67;5.07;;;8.20;95.60;;;;;;5052527;28;20476;-74
2021/01/20 02:28:00;;;;;;;6.17;5.77;;;8.20;95.40;;;;;;5053845;28;20389;-74
2021/01/20 02:30:27;;;;;;;4.80;4.40;;;8.20;95.60;;;;;;5053386;28;21171;-73
2021/01/20 02:32:56;;;;;;;6.43;4.70;;;8.20;95.60;;;;;;5053468;28;20398;-73
2021/01/20 02:35:24;;;;;;;5.97;4.63;;;8.20;95.60;;;;;;5048408;28;20383;-73
2021/01/20 02:37:51;;;;;;;4.90;4.60;;;8.10;95.30;;;;;;5047520;28;20419;-73
2021/01/20 02:40:18;;;;;;;4.97;4.57;;;8.10;95.50;;;;;;5052693;28;20451;-73
2021/01/20 02:42:46;;;;;;;4.90;4.50;;;8.10;95.40;;;;;;5052947;28;20435;-74
2021/01/20 02:45:13;;;;;;;4.60;4.30;;;8.30;95.50;;;;;;5052812;28;20459;-73
2021/01/20 02:47:39;;;;;;;5.60;5.20;;;8.30;95.00;;;;;;5053322;28;20957;-73
2021/01/20 02:50:07;;;;;;;5.83;4.70;;;8.20;95.00;;;;;;5053643;28;20477;-73
2021/01/20 02:52:42;;;;;;;5.63;5.10;;;8.30;94.80;;;;;;5052642;28;20476;-74
2021/01/20 02:55:10;;;;;;;5.27;4.80;;;8.40;94.70;;;;;;5035130;28;20887;-74
2021/01/20 02:57:37;;;;;;;4.70;4.40;;;8.30;94.70;;;;;;5053840;28;20742;-73
2021/01/20 03:00:05;;;;;;;4.70;4.27;;;8.40;94.80;;;;;;5040551;28;20480;-73
2021/01/20 03:02:32;;;;;;;5.47;5.00;;;8.50;94.60;;;;;;5051365;28;20416;-73
2021/01/20 03:04:59;;;;;;;4.97;4.40;;;8.50;94.10;;;;;;5053315;28;20426;-73
2021/01/20 03:07:26;;;;;;;5.53;5.10;;;8.50;94.10;;;;;;5051753;28;20412;-73
2021/01/20 03:09:53;;;;;;;5.07;4.67;;;8.40;94.20;;;;;;5051808;28;20858;-73
2021/01/20 03:12:26;;;;;;;5.20;4.80;;;8.30;94.30;;;;;;5052475;28;20506;-73
2021/01/20 03:14:54;;;;;;;5.60;5.10;;;8.40;94.70;;;;;;5053375;28;20793;-73
2021/01/20 03:17:20;;;;;;;5.20;4.77;;;8.50;94.50;;;;;;5052139;28;20470;-73
2021/01/20 03:19:45;;;;;;;4.83;4.43;;;8.60;94.50;;;;;;5051264;28;20802;-73
2021/01/20 03:22:11;;;;;;;4.80;4.40;;;8.70;95.00;;;;;;5052427;28;20200;-74
2021/01/20 03:24:37;;;;;;;5.20;4.70;;;8.80;94.80;;;;;;5031193;28;20216;-73
2021/01/20 03:27:03;;;;;;;5.10;4.70;;;8.80;94.70;;;;;;5052285;28;20565;-74
2021/01/20 03:29:28;;;;;;;4.83;4.43;;;8.80;94.70;;;;;;5050834;28;20184;-73
2021/01/20 03:31:54;;;;;;;5.33;4.93;;;8.70;94.60;;;;;;5052284;28;20181;-73
2021/01/20 03:34:20;;;;;;;5.20;4.73;;;8.70;94.90;;;;;;5051987;28;20181;-73
2021/01/20 03:36:45;;;;;;;5.93;5.43;;;8.80;95.10;;;;;;5052443;28;20740;-73
2021/01/20 03:39:11;;;;;;;5.00;4.60;;;8.80;95.00;;;;;;5050805;28;20185;-73
2021/01/20 03:41:37;;;;;;;4.80;4.40;;;8.80;95.10;;;;;;5051792;28;20649;-73
2021/01/20 03:44:03;;;;;;;4.70;4.40;;;8.90;95.00;;;;;;5052850;28;20300;-73
2021/01/20 03:46:29;;;;;;;5.60;5.03;;;8.90;95.10;;;;;;5047497;28;20223;-74
2021/01/20 03:48:55;;;;;;;4.60;4.30;;;8.90;94.90;;;;;;5047831;28;20460;-73
2021/01/20 03:51:21;;;;;;;4.30;4.00;;;8.90;95.50;;;;;;5051151;28;20428;-73
2021/01/20 03:53:46;;;;;;;4.17;3.83;;;8.80;95.80;;;;;;5051290;28;20706;-73
2021/01/20 03:56:12;;;;;;;4.70;4.40;;;8.80;96.00;;;;;;5051826;28;20424;-74
2021/01/20 03:58:38;;;;;;;4.70;4.40;;;8.80;96.20;;;;;;5052101;28;20169;-73
2021/01/20 04:01:04;;;;;;;5.50;5.00;;;8.80;95.90;;;;;;5052435;28;20568;-74
2021/01/20 04:03:29;;;;;;;4.60;4.20;;;8.80;96.00;;;;;;5051399;28;20400;-73
2021/01/20 04:05:55;;;;;;;5.40;4.90;;;8.90;96.10;;;;;;5052343;28;20212;-73
2021/01/20 04:08:21;;;;;;;4.20;3.80;;;8.90;95.90;;;;;;5050589;28;20196;-73
2021/01/20 04:10:46;;;;;;;5.17;3.97;;;8.90;95.60;;;;;;5051995;28;20185;-74
2021/01/20 04:13:12;;;;;;;5.20;4.80;;;8.90;95.50;;;;;;5050522;28;20180;-74
2021/01/20 04:15:38;;;;;;;4.50;4.20;;;8.80;95.20;;;;;;5051940;28;20205;-74
2021/01/20 04:18:04;;;;;;;4.83;4.53;;;9.00;95.10;;;;;;5051761;28;20252;-74
2021/01/20 04:20:30;;;;;;;4.90;4.13;;;9.00;94.70;;;;;;5050086;28;20178;-74
2021/01/20 04:22:55;;;;;;;4.20;3.90;;;8.90;94.60;;;;;;5051939;28;20383;-74
2021/01/20 04:25:21;;;;;;;4.60;4.30;;;9.00;94.60;;;;;;5051313;28;20209;-74
2021/01/20 04:27:47;;;;;;;4.73;4.37;;;9.00;94.40;;;;;;5052206;28;20176;-74
2021/01/20 04:30:13;;;;;;;4.50;4.10;;;9.00;94.40;;;;;;5050422;28;20216;-74
2021/01/20 04:32:38;;;;;;;5.40;4.70;;;9.00;94.30;;;;;;5051734;28;20173;-74
2021/01/20 04:35:05;;;;;;;5.20;4.80;;;9.10;94.30;;;;;;5051880;28;20401;-73
2021/01/20 04:37:31;;;;;;;5.23;4.73;;;8.90;94.00;;;;;;5049911;28;20177;-73
2021/01/20 04:39:56;;;;;;;6.40;4.73;;;9.00;94.30;;;;;;5051478;28;20444;-74
2021/01/20 04:42:22;;;;;;;4.90;4.50;;;8.90;94.20;;;;;;5050466;28;20182;-74
2021/01/20 04:44:48;;;;;;;5.43;5.13;;;8.90;94.30;;;;;;5051733;28;20212;-73
2021/01/20 04:47:15;;;;;;;5.27;4.77;;;8.90;94.20;;;;;;5050279;28;20711;-74
2021/01/20 04:49:45;;;;;;;5.07;4.70;;;9.00;94.40;;;;;;5052067;28;20158;-74
2021/01/20 04:52:16;;;;;;;4.50;4.10;;;9.00;94.20;;;;;;5054816;28;20408;-74
2021/01/20 04:54:44;;;;;;;4.90;4.60;;;9.00;93.90;;;;;;5056660;28;20386;-74
2021/01/20 04:57:14;;;;;;;5.40;5.00;;;8.90;94.00;;;;;;5056214;28;20946;-74
2021/01/20 04:59:41;;;;;;;5.00;4.70;;;9.00;93.90;;;;;;5055959;28;20367;-74
2021/01/20 05:02:09;;;;;;;5.73;5.10;;;9.10;93.70;;;;;;5055783;28;20391;-74
2021/01/20 05:04:37;;;;;;;6.00;5.50;;;9.00;93.40;;;;;;5055397;28;20418;-74
2021/01/20 05:07:04;;;;;;;5.13;4.73;;;9.00;93.40;;;;;;5055978;28;20366;-74
2021/01/20 05:09:30;;;;;;;5.40;5.00;;;8.90;93.30;;;;;;5054972;28;20786;-74
2021/01/20 05:11:55;;;;;;;5.47;4.97;;;9.00;93.10;;;;;;5056116;28;20391;-74
2021/01/20 05:14:21;;;;;;;5.30;4.90;;;9.00;93.10;;;;;;5055283;28;20173;-74
2021/01/20 05:16:49;;;;;;;7.73;5.20;;;9.10;92.90;;;;;;5055871;28;20200;-74
2021/01/20 05:19:16;;;;;;;5.13;4.73;;;9.00;92.60;;;;;;5055083;28;20216;-74
2021/01/20 05:21:48;;;;;;;6.67;6.07;;;9.00;92.60;;;;;;5055804;28;20400;-74
2021/01/20 05:24:21;;;;;;;7.50;6.77;;;9.00;92.70;;;;;;5054782;28;20539;-74
2021/01/20 05:26:47;;;;;;;6.83;6.23;;;9.10;92.50;;;;;;5055686;28;20489;-73
2021/01/20 05:29:14;;;;;;;5.90;5.50;;;9.00;92.30;;;;;;5054563;28;20850;-74
2021/01/20 05:31:40;;;;;;;6.40;5.30;;;9.10;92.20;;;;;;5055733;28;20749;-74
2021/01/20 05:34:34;;;;;;;6.80;6.30;;;9.20;92.00;;;;;;5055521;28;20756;-74
2021/01/20 05:37:00;;;;;;;5.40;4.90;;;9.00;91.30;;;;;;5055603;28;20393;-74
2021/01/20 05:39:26;;;;;;;6.83;4.40;;;9.10;91.30;;;;;;5054785;28;20425;-74
2021/01/20 05:42:09;;;;;;;5.30;4.90;;;9.20;91.00;;;;;;5055384;28;20366;-73
2021/01/20 05:44:35;;;;;;;5.00;4.60;;;9.00;90.80;;;;;;5054688;28;20200;-74
2021/01/20 05:47:07;;;;;;;5.00;4.47;;;9.00;90.80;;;;;;5054258;28;20413;-73
2021/01/20 05:49:33;;;;;;;5.17;4.77;;;8.90;90.80;;;;;;5034049;28;20400;-73
2021/01/20 05:52:00;;;;;;;5.73;5.23;;;8.90;90.70;;;;;;5034827;28;20388;-73
2021/01/20 05:54:43;;;;;;;5.50;5.10;;;9.00;90.70;;;;;;5034169;28;20533;-74
2021/01/20 05:57:10;;;;;;;5.03;4.53;;;9.10;90.40;;;;;;5034461;28;20395;-74
2021/01/20 05:59:36;;;;;;;5.70;5.30;;;9.20;90.00;;;;;;5033974;28;20496;-73
2021/01/20 06:02:02;;;;;;;5.80;4.90;;;9.10;89.90;;;;;;5051817;28;20403;-73
2021/01/20 06:04:30;;;;;;;7.40;6.70;;;9.10;90.00;;;;;;5053570;28;20555;-74
2021/01/20 06:06:56;;;;;;;6.20;5.70;;;9.20;90.00;;;;;;5059902;28;20444;-73
2021/01/20 06:09:25;;;;;;;5.87;5.37;;;9.20;90.40;;;;;;5053049;28;20450;-73
2021/01/20 06:11:51;;;;;;;5.10;4.70;;;9.10;90.10;;;;;;5053126;28;20403;-73
2021/01/20 06:14:17;;;;;;;5.13;4.80;;;9.00;90.20;;;;;;5051984;28;20938;-73
2021/01/20 06:16:45;;;;;;;5.07;4.67;;;9.10;90.30;;;;;;5052391;28;20534;-74
2021/01/20 06:19:13;;;;;;;4.90;4.50;;;9.20;90.40;;;;;;5054342;28;20239;-73
2021/01/20 06:21:40;;;;;;;4.80;4.30;;;9.20;90.20;;;;;;5053340;28;20886;-73
2021/01/20 06:24:09;;;;;;;5.00;4.70;;;9.20;90.60;;;;;;5054109;28;20419;-74
2021/01/20 06:27:07;;;;;;;6.00;5.60;;;9.20;90.50;;;;;;5051327;28;20601;-74
2021/01/20 06:29:38;;;;;;;5.60;5.20;;;9.30;90.70;;;;;;5053087;28;20685;-74
2021/01/20 06:32:06;;;;;;;5.30;4.90;;;9.30;90.80;;;;;;5053301;28;20386;-74
2021/01/20 06:34:32;;;;;;;5.10;4.63;;;9.30;90.90;;;;;;5052926;28;20898;-74
2021/01/20 06:36:57;;;;;;;4.90;4.60;;;9.30;91.20;;;;;;5053149;28;20402;-74
2021/01/20 06:39:26;;;;;;;5.10;4.40;;;9.10;91.40;;;;;;5052711;28;20176;-73
2021/01/20 06:41:52;;;;;;;4.83;4.47;;;9.20;91.70;;;;;;5053632;28;20174;-73
2021/01/20 06:44:18;;;;;;;4.90;4.50;;;9.20;91.70;;;;;;5052563;28;20434;-74
2021/01/20 06:46:56;;;;;;;6.17;5.67;;;9.30;91.80;;;;;;5051785;28;20773;-70
2021/01/20 06:49:23;;;;;;;4.53;4.20;;;9.20;91.90;;;;;;5052335;28;20398;-71
2021/01/20 06:52:06;;;;;;;5.13;4.63;;;9.20;92.10;;;;;;5052283;28;20405;-71
2021/01/20 06:54:40;;;;;;;4.33;3.93;;;9.20;92.10;;;;;;5052737;28;20407;-71
2021/01/20 06:57:27;;;;;;;5.10;4.80;;;9.20;92.00;;;;;;5054180;28;20419;-74
2021/01/20 07:00:15;;;;;;;4.23;3.93;;;9.30;92.00;;;;;;5053507;28;20451;-71
2021/01/20 07:03:03;;;;;;;4.90;4.50;;;9.30;91.90;;;;;;5053607;28;20422;-71
2021/01/20 07:05:34;;;;;;;5.03;4.17;;;9.30;91.90;;;;;;5052649;28;21032;-71
2021/01/20 07:08:00;;;;;;;4.90;4.60;;;9.30;91.70;;;;;;5052784;28;20424;-71
2021/01/20 07:10:31;;;;;;;4.97;4.30;;;9.30;92.00;;;;;;5052801;28;20508;-71
2021/01/20 07:13:09;;;;;;;6.10;5.70;;;9.30;91.90;;;;;;5052031;28;20463;-72
2021/01/20 07:15:38;;;;;;;4.70;4.30;;;9.20;91.80;;;;;;5052323;28;20429;-72
2021/01/20 07:18:07;;;;;;;4.60;4.20;;;9.10;91.90;;;;;;5053284;28;20416;-72
2021/01/20 07:20:34;;;;;;;5.03;4.10;;;9.20;92.00;;;;;;5052805;28;20464;-72
2021/01/20 07:23:00;;;;;;;5.83;5.33;;;9.20;91.90;;;;;;5053221;28;20457;-72
2021/01/20 07:25:29;;;;;;;3.90;3.70;;;9.10;91.90;;;;;;5052157;28;20937;-72
2021/01/20 07:27:55;;;;;;;5.27;4.87;;;9.10;92.00;;;;;;5053313;28;20383;-71
2021/01/20 07:30:22;;;;;;;4.47;4.03;;;9.20;91.70;;;;;;5052628;28;20462;-71
2021/01/20 07:32:48;;;;;;;4.43;4.03;;;9.10;91.50;;;;;;5053163;28;20416;-71
2021/01/20 07:35:21;;;;;;;5.20;4.80;;;9.20;91.60;;;;;;5052459;28;20437;-71
2021/01/20 07:37:57;;;;;;;5.30;4.40;;;9.10;91.70;;;;;;5052206;28;20427;-71
2021/01/20 07:40:34;;;;;;;4.73;4.33;;;9.00;91.60;;;;;;5052250;28;20804;-71
2021/01/20 07:43:00;;;;;;;4.20;3.90;;;9.00;91.80;;;;;;5052837;28;20374;-74
2021/01/20 07:45:41;;;;;;;4.23;3.93;;;9.10;91.70;;;;;;5050572;28;20464;-71
2021/01/20 07:48:08;;;;;;;4.80;4.50;;;9.00;91.70;;;;;;5051238;28;20789;-71
2021/01/20 07:50:47;;;;;;;3.53;3.23;;;9.00;91.70;;;;;;5051740;28;20725;-72
2021/01/20 07:53:18;;;;;;;4.57;4.20;;;9.00;91.80;;;;;;5051954;28;20413;-72
2021/01/20 07:55:45;;;;;;;4.20;3.90;;;9.00;91.90;;;;;;5052938;28;20706;-72
2021/01/20 07:58:12;;;;;;;4.30;3.97;;;8.90;91.90;;;;;;5052411;28;20416;-71
2021/01/20 08:00:48;;;;;;;3.83;3.60;;;8.90;91.90;;;;;;5052930;28;20713;-71
2021/01/20 08:03:15;;;;;;;4.83;4.53;;;9.00;91.80;;;;;;5052089;28;20466;-71
2021/01/20 08:05:42;;;;;;;4.73;4.43;;;9.10;91.80;;;;;;5052120;28;20465;-72
2021/01/20 08:08:09;;;;;;;4.20;3.90;;;9.10;91.60;;;;;;5052515;28;20408;-72
2021/01/20 08:10:35;;;;;;;5.03;4.73;;;9.20;91.40;;;;;;5051909;28;20402;-72
2021/01/20 08:13:02;;;;;;;5.17;4.87;;;9.20;91.40;;;;;;5052892;28;20416;-72
2021/01/20 08:15:32;;;;;;;4.47;4.17;;;9.30;91.10;;;;;;5051843;28;20418;-72
2021/01/20 08:17:59;;;;;;;4.30;4.00;;;9.30;90.80;;;;;;5052753;28;20519;-72
2021/01/20 08:20:30;;;;;;;4.53;4.20;;;9.20;90.40;;;;;;5052184;28;20408;-72
2021/01/20 08:22:56;;;;;;;4.90;4.13;;;9.20;90.50;;;;;;5052317;28;20379;-71
2021/01/20 08:25:22;;;;;;;6.33;5.83;;;9.20;90.80;;;;;;5050962;28;20459;-71
2021/01/20 08:27:48;;;;;;;4.23;3.93;;;9.20;90.80;;;;;;5052352;28;20182;-71
2021/01/20 08:30:34;;;;;;;5.23;4.87;;;9.20;90.80;;;;;;5050380;28;20411;-71
2021/01/20 08:33:01;;;;;;;5.13;4.73;;;9.30;90.70;;;;;;5052618;28;20441;-71
2021/01/20 08:35:32;;;;;;;4.77;4.03;;;9.40;90.80;;;;;;5051583;28;20447;-70
2021/01/20 08:37:59;;;;;;;4.50;4.20;;;9.40;90.60;;;;;;5050517;28;20394;-71
2021/01/20 08:40:25;;;;;;;5.37;4.97;;;9.50;90.50;;;;;;5051127;28;20403;-75
2021/01/20 08:42:51;;;;;;;4.20;4.00;;;9.50;90.20;;;;;;5050626;28;20394;-71
2021/01/20 08:45:30;;;;;;;4.20;3.90;;;9.50;90.10;;;;;;5051306;28;20463;-71
2021/01/20 08:47:57;;;;;;;5.07;4.67;;;9.60;90.20;;;;;;5050656;28;20460;-71
2021/01/20 08:50:40;;;;;;;5.00;4.67;;;9.60;90.40;;;;;;5051314;28;20478;-71
2021/01/20 08:53:24;;;;;;;4.67;4.30;;;9.60;90.20;;;;;;5049474;28;20433;-71
2021/01/20 08:55:51;;;;;;;6.37;4.23;;;9.60;90.00;;;;;;5052123;28;20404;-71
2021/01/20 08:58:25;;;;;;;4.40;4.10;;;9.60;90.40;;;;;;5051394;28;20408;-72
2021/01/20 09:01:06;;;;;;;4.27;3.97;;;9.70;90.00;;;;;;5052028;28;20453;-72
2021/01/20 09:03:34;;;;;;;4.87;4.57;;;9.70;90.00;;;;;;5050096;28;20378;-72
2021/01/20 09:06:01;;;;;;;4.23;3.70;;;9.60;90.10;;;;;;5053778;28;20486;-72
2021/01/20 09:08:29;;;;;;;5.77;5.37;;;9.70;90.20;;;;;;5049610;28;20428;-72
2021/01/20 09:10:56;;;;;;;6.20;4.50;;;9.90;90.00;;;;;;5050858;28;20783;-72
2021/01/20 09:13:22;;;;;;;5.57;4.30;;;10.00;88.00;;;;;;5051107;28;20387;-72
2021/01/20 09:15:50;;;;;;;4.20;3.83;;;10.10;87.40;;;;;;5034614;28;20424;-72
2021/01/20 09:18:17;;;;;;;5.30;4.90;;;10.30;87.40;;;;;;5051226;28;20464;-72
2021/01/20 09:20:43;;;;;;;4.77;4.40;;;10.70;85.40;;;;;;5051094;28;20801;-71
2021/01/20 09:23:10;;;;;;;5.33;4.93;;;11.10;83.70;;;;;;5033214;28;20934;-72
2021/01/20 09:25:36;;;;;;;4.70;4.33;;;11.50;82.80;;;;;;5050359;28;20472;-71
2021/01/20 09:28:03;;;;;;;4.73;4.40;;;11.50;81.20;;;;;;5050399;28;20426;-72
2021/01/20 09:30:29;;;;;;;5.10;4.80;;;11.40;81.40;;;;;;5049493;28;20495;-72
2021/01/20 09:32:55;;;;;;;4.47;4.23;;;11.80;80.40;;;;;;5051449;28;20448;-72
2021/01/20 09:35:21;;;;;;;6.03;5.63;;;11.80;78.10;;;;;;5050270;28;20463;-72
2021/01/20 09:37:49;;;;;;;4.90;4.50;;;11.80;78.90;;;;;;5053483;28;20410;-71
2021/01/20 09:40:17;;;;;;;4.53;4.23;;;11.60;79.00;;;;;;5054697;28;20934;-71
2021/01/20 09:42:47;;;;;;;5.80;5.40;;;11.80;79.80;;;;;;5054878;28;20493;-72
2021/01/20 09:45:15;;;;;;;5.60;5.20;;;12.50;77.80;;;;;;5054589;28;20444;-72
2021/01/20 09:47:43;;;;;;;4.93;4.53;;;13.00;75.00;;;;;;5053406;28;20538;-72
2021/01/20 09:50:11;;;;;;;4.90;4.50;;;13.40;72.50;;;;;;5054810;28;20445;-72
2021/01/20 09:52:37;;;;;;;4.67;4.30;;;14.00;70.60;;;;;;5052291;28;20486;-72
2021/01/20 09:55:05;;;;;;;5.20;4.80;;;13.80;68.80;;;;;;5054667;28;20754;-72
2021/01/20 09:57:31;;;;;;;6.03;5.63;;;14.10;68.10;;;;;;5053493;28;20436;-72
2021/01/20 09:59:57;;;;;;;4.97;4.63;;;14.50;67.40;;;;;;5053373;28;20425;-72
2021/01/20 10:02:22;;;;;;;7.43;6.93;;;14.80;66.10;;;;;;5053352;28;20424;-72
2021/01/20 10:04:48;;;;;;;7.40;6.60;;;14.90;65.00;;;;;;5054299;28;20243;-72
2021/01/20 10:07:15;;;;;;;6.80;6.30;;;14.90;64.40;;;;;;5054084;28;20230;-72
2021/01/20 10:09:41;;;;;;;6.00;5.50;;;14.50;64.00;;;;;;5054336;28;20170;-72
2021/01/20 10:12:09;;;;;;;7.00;6.47;;;14.20;64.70;;;;;;5054076;28;20432;-71
2021/01/20 10:14:36;;;;;;;6.63;6.07;;;13.30;65.70;;;;;;5052133;28;20956;-72
2021/01/20 10:17:02;;;;;;;6.20;5.90;;;13.20;68.20;;;;;;5054269;28;20403;-72
2021/01/20 10:19:28;;;;;;;6.80;6.23;;;12.80;67.80;;;;;;5053052;28;20907;-72
2021/01/20 10:21:54;;;;;;;7.83;7.33;;;12.80;70.10;;;;;;5052615;28;20433;-72
2021/01/20 10:24:19;;;;;;;5.83;5.43;;;12.80;70.00;;;;;;5053068;28;20247;-72
2021/01/20 10:26:45;;;;;;;6.50;6.00;;;12.60;69.20;;;;;;5052746;28;20549;-71
2021/01/20 10:29:11;;;;;;;5.60;5.23;;;12.40;70.30;;;;;;5054189;28;20176;-72
2021/01/20 10:31:41;;;;;;;7.37;6.90;;;12.40;70.00;;;;;;5053164;28;20187;-72
2021/01/20 10:34:08;;;;;;;5.47;5.07;;;12.60;70.50;;;;;;5052635;28;20267;-72
2021/01/20 10:36:35;;;;;;;6.83;6.43;;;12.80;70.00;;;;;;5051824;28;20951;-72
2021/01/20 10:39:01;;;;;;;5.60;5.27;;;12.90;69.10;;;;;;5052851;28;20418;-72
2021/01/20 10:41:27;;;;;;;9.23;6.00;;;13.20;67.80;;;;;;5052960;28;20884;-72
2021/01/20 10:43:54;;;;;;;7.00;6.40;;;13.50;68.60;;;;;;5052013;28;20419;-72
2021/01/20 10:46:25;;;;;;;6.10;5.67;;;13.50;65.90;;;;;;5052832;28;20213;-72
2021/01/20 10:48:54;;;;;;;6.30;5.80;;;13.60;67.40;;;;;;5053835;28;20940;-72
2021/01/20 10:51:21;;;;;;;5.70;5.30;;;14.00;67.30;;;;;;5051257;28;20769;-72
2021/01/20 10:53:47;;;;;;;6.43;5.93;;;14.40;64.00;;;;;;5053031;28;20407;-72
2021/01/20 10:56:13;;;;;;;6.07;5.67;;;14.50;64.40;;;;;;5053148;28;20409;-72
2021/01/20 10:58:39;;;;;;;6.87;6.27;;;14.60;63.20;;;;;;5052882;28;20929;-72
2021/01/20 11:01:05;;;;;;;7.03;6.53;;;14.80;62.70;;;;;;5053473;28;20415;-72
2021/01/20 11:03:31;;;;;;;5.90;5.60;;;14.40;62.50;;;;;;5052674;28;20422;-72
2021/01/20 11:05:57;;;;;;;5.63;5.23;;;14.30;63.20;;;;;;5053358;28;20461;-72
2021/01/20 11:08:22;;;;;;;5.00;4.70;;;14.30;62.70;;;;;;5052421;28;20583;-73
2021/01/20 11:10:49;;;;;;;5.80;5.40;;;14.30;63.40;;;;;;5052719;28;20189;-73
2021/01/20 11:13:15;;;;;;;6.30;5.90;;;14.30;61.90;;;;;;5052422;28;20185;-73
2021/01/20 11:15:45;;;;;;;6.40;5.90;;;14.00;60.90;;;;;;5052955;28;20411;-73
2021/01/20 11:18:13;;;;;;;7.30;6.90;;;13.80;62.60;;;;;;5052767;28;20405;-73
2021/01/20 11:20:40;;;;;;;5.47;5.07;;;13.60;62.90;;;;;;5050890;28;20420;-73
2021/01/20 11:23:07;;;;;;;7.77;7.17;;;13.70;63.50;;;;;;5052313;28;20433;-73
2021/01/20 11:25:32;;;;;;;6.80;6.40;;;13.60;61.80;;;;;;5052142;28;20468;-73
2021/01/20 11:27:59;;;;;;;5.40;4.97;;;13.60;62.90;;;;;;5052758;28;20434;-73
2021/01/20 11:30:26;;;;;;;7.77;7.27;;;13.80;62.40;;;;;;5050669;28;20179;-73
2021/01/20 11:32:52;;;;;;;5.77;5.40;;;13.60;61.90;;;;;;5052189;28;20414;-73
2021/01/20 11:35:18;;;;;;;7.40;7.00;;;13.50;61.70;;;;;;5052029;28;20424;-73
2021/01/20 11:37:44;;;;;;;7.67;7.17;;;13.30;61.90;;;;;;5051100;28;20916;-73
2021/01/20 11:40:10;;;;;;;5.40;5.10;;;13.40;61.80;;;;;;5052725;28;20450;-73
2021/01/20 11:42:36;;;;;;;7.30;6.80;;;13.60;62.10;;;;;;5050727;28;20510;-73
2021/01/20 11:45:03;;;;;;;7.70;7.20;;;13.70;61.40;;;;;;5051840;28;20509;-73
2021/01/20 11:47:29;;;;;;;7.17;6.57;;;14.00;60.20;;;;;;5051363;28;20214;-73
2021/01/20 11:49:55;;;;;;;5.40;5.00;;;14.00;60.40;;;;;;5053214;28;20394;-73
2021/01/20 11:52:21;;;;;;;5.07;4.77;;;14.10;59.90;;;;;;5051918;28;20257;-73
2021/01/20 11:54:47;;;;;;;7.80;7.30;;;14.00;59.80;;;;;;5052256;28;20510;-73
2021/01/20 11:57:13;;;;;;;5.90;5.60;;;13.90;60.70;;;;;;5052256;28;20460;-73
2021/01/20 11:59:39;;;;;;;6.60;6.17;;;13.80;60.80;;;;;;5052313;28;20405;-73
2021/01/20 12:02:06;;;;;;;6.00;5.40;;;13.90;61.60;;;;;;5051547;28;20751;-71
2021/01/20 12:04:31;;;;;;;5.40;5.00;;;13.90;60.00;;;;;;5051854;28;20449;-71
2021/01/20 12:06:57;;;;;;;5.63;5.33;;;14.00;61.00;;;;;;5034806;28;20810;-71
2021/01/20 12:09:24;;;;;;;5.87;5.47;;;14.00;59.80;;;;;;5052013;28;20172;-71
2021/01/20 12:11:50;;;;;;;5.70;5.30;;;13.90;60.00;;;;;;5052388;28;20166;-71
2021/01/20 12:14:17;;;;;;;5.77;5.37;;;14.00;61.30;;;;;;5051831;28;20398;-71
2021/01/20 12:16:42;;;;;;;5.23;4.93;;;13.90;60.20;;;;;;5052292;28;20449;-70
2021/01/20 12:19:08;;;;;;;6.03;5.63;;;13.90;61.10;;;;;;5052071;28;20824;-69
2021/01/20 12:21:34;;;;;;;5.63;5.23;;;14.10;60.60;;;;;;5051563;28;20436;-73
2021/01/20 12:24:00;;;;;;;5.63;5.30;;;14.00;59.70;;;;;;5057966;28;20414;-73
2021/01/20 12:26:27;;;;;;;5.67;5.30;;;13.70;59.70;;;;;;5056184;28;20996;-73
2021/01/20 12:28:53;;;;;;;6.43;6.03;;;13.60;60.40;;;;;;5054452;28;20431;-73
2021/01/20 12:31:18;;;;;;;7.70;7.00;;;13.50;59.70;;;;;;5065051;28;20466;-73
2021/01/20 12:33:44;;;;;;;6.50;6.10;;;13.40;61.00;;;;;;5060797;28;20409;-73
2021/01/20 12:36:10;;;;;;;6.00;5.60;;;13.40;61.30;;;;;;5060266;28;20422;-73
2021/01/20 12:38:36;;;;;;;6.10;5.70;;;13.40;61.60;;;;;;5059876;28;20450;-73
2021/01/20 12:41:02;;;;;;;5.53;5.23;;;13.40;62.10;;;;;;5062516;28;20444;-73
2021/01/20 12:43:28;;;;;;;6.30;5.90;;;13.50;62.90;;;;;;5071474;28;20577;-73
2021/01/20 12:45:53;;;;;;;5.30;5.00;;;13.40;61.70;;;;;;5067702;28;20526;-73
2021/01/20 12:48:19;;;;;;;5.50;5.10;;;13.40;61.60;;;;;;5051296;28;20225;-68
2021/01/20 12:50:46;;;;;;;5.67;5.20;;;13.30;62.10;;;;;;5051962;28;20192;-69
2021/01/20 12:53:13;;;;;;;6.60;6.20;;;13.10;62.70;;;;;;5051990;28;20467;-71
2021/01/20 12:55:39;;;;;;;5.60;5.20;;;13.10;63.00;;;;;;5051325;28;20522;-71
2021/01/20 12:58:05;;;;;;;5.10;4.70;;;12.80;62.00;;;;;;5050565;28;20550;-71